メインページ
METAR-TAF:

METAR-TAF

空港 :

Penticton, ブリティッシュコロンビア州, カナダ

緯度: 49-28N, 経度: 119-36W, 海抜: 344m

現時点の気象観測

当レポートは47分前の17:00(UTC)に作成
の風 6kt、北/北西から北/北東の間で変化する
気温 20°C
湿度 56%
気圧 1020 hPa
視程: 24.1km
高度5000ftの雲はほとんどない

METAR: CYYF 211700Z 01006KT 330V030 15SM FEW050 20/11 A3012 RMK CU1 SLP200 DENSITY ALT 1800FT

時間: 10:47 (17:47 UTC)

予報

当レポートは5時間8分前の12:39(UTC)に作成
予報は21日の 13時(UTC)から 22日の 01時(UTC)まで有効
の風 6kt
視程: 10km
高度7000ftの雲は散在している
高度25000ftの雲は散在している
21日の 15時(UTC)から 21日の 17時(UTC)まで徐々に
北/北西の風 8kt
21日の 19時(UTC)から 21日の 21時(UTC)まで徐々に
西/南西の風 10kt
21日の 2300時(UTC)から
の風 12kt
視程: 10km
高度9000ftの雲は散在している

TAF: CYYF 211239Z 2113/2201 36006KT P6SM SCT070 SCT250 BECMG 2115/2117 34008KT BECMG 2119/2121 25010KT FM212300 17012KT P6SM SCT090 RMK NXT FCST BY 211900Z

4,000以上の空港の気象観測と天気予報(METAR報とTAF報)

利用可能な観測所は地図上に黄色い丸と赤い丸で示す。

丸の上にカーソルを重ねると観測所名を参照できる。

次にクリックすると気象観測と天気予報を参照できる。

マップの切り替え:黒色「×」印の緑ボタンをクリックして拡大、「-」印の緑ボタンをクリックして縮小、緑色の三角印をクリックして隣りの地図に切り替え


METAR-TAF: